sensor_id;sensor_type;location;lat;lon;timestamp;pressure;altitude;pressure_sealevel;temperature;humidity
39405;BME280;25121;51.090;17.038;2023-02-19T00:19:10;99814.53;;;7.85;79.88
39405;BME280;25121;51.090;17.038;2023-02-19T00:21:17;99814.53;;;7.85;79.82
39405;BME280;25121;51.090;17.038;2023-02-19T00:22:54;99805.16;;;7.81;79.93
39405;BME280;25121;51.090;17.038;2023-02-19T00:25:02;99812.53;;;7.87;79.78
39405;BME280;25121;51.090;17.038;2023-02-19T00:26:39;99811.34;;;7.89;79.81
39405;BME280;25121;51.090;17.038;2023-02-19T00:28:15;99786.59;;;7.79;79.66
39405;BME280;25121;51.090;17.038;2023-02-19T00:29:49;99788.09;;;7.82;79.75
39405;BME280;25121;51.090;17.038;2023-02-19T00:31:28;99781.78;;;7.83;79.43
39405;BME280;25121;51.090;17.038;2023-02-19T00:33:18;99797.16;;;7.89;79.51
39405;BME280;25121;51.090;17.038;2023-02-19T00:35:07;99785.78;;;7.87;79.34
39405;BME280;25121;51.090;17.038;2023-02-19T00:36:55;99778.22;;;7.82;79.42
39405;BME280;25121;51.090;17.038;2023-02-19T00:38:44;99794.97;;;7.92;79.24
39405;BME280;25121;51.090;17.038;2023-02-19T00:42:15;99779.75;;;7.85;79.27
39405;BME280;25121;51.090;17.038;2023-02-19T00:43:43;99785.78;;;7.87;79.16
39405;BME280;25121;51.090;17.038;2023-02-19T00:45:14;99791.97;;;7.95;79.25
39405;BME280;25121;51.090;17.038;2023-02-19T00:47:22;99775.91;;;7.87;79.00
39405;BME280;25121;51.090;17.038;2023-02-19T00:49:06;99777.41;;;7.90;79.24
39405;BME280;25121;51.090;17.038;2023-02-19T00:50:33;99788.28;;;7.96;79.14
39405;BME280;25121;51.090;17.038;2023-02-19T00:52:22;99783.28;;;7.93;79.29
39405;BME280;25121;51.090;17.038;2023-02-19T00:53:58;99775.75;;;7.89;79.33
39405;BME280;25121;51.090;17.038;2023-02-19T00:55:55;99768.56;;;7.89;79.17
39405;BME280;25121;51.090;17.038;2023-02-19T00:57:44;99781.09;;;7.97;79.14
39405;BME280;25121;51.090;17.038;2023-02-19T00:59:11;99775.94;;;7.95;79.19
39405;BME280;25121;51.090;17.038;2023-02-19T01:00:44;99767.72;;;7.89;79.31
39405;BME280;25121;51.090;17.038;2023-02-19T01:02:45;99762.38;;;7.89;79.13
39405;BME280;25121;51.090;17.038;2023-02-19T01:04:25;99764.88;;;7.90;79.02
39405;BME280;25121;51.090;17.038;2023-02-19T01:06:04;99769.41;;;7.98;78.93
39405;BME280;25121;51.090;17.038;2023-02-19T01:07:44;99754.69;;;7.86;79.25
39405;BME280;25121;51.090;17.038;2023-02-19T01:09:11;99748.16;;;7.88;79.37
39405;BME280;25121;51.090;17.038;2023-02-19T01:11:19;99747.50;;;7.86;78.97
39405;BME280;25121;51.090;17.038;2023-02-19T01:12:45;99759.88;;;7.95;79.15
39405;BME280;25121;51.090;17.038;2023-02-19T01:17:25;99757.34;;;7.94;79.35
39405;BME280;25121;51.090;17.038;2023-02-19T01:19:06;99736.28;;;7.83;79.37
39405;BME280;25121;51.090;17.038;2023-02-19T01:20:32;99758.38;;;7.93;79.47
39405;BME280;25121;51.090;17.038;2023-02-19T01:21:56;99756.69;;;7.92;79.67
39405;BME280;25121;51.090;17.038;2023-02-19T01:23:19;99735.44;;;7.82;79.71
39405;BME280;25121;51.090;17.038;2023-02-19T01:24:46;99752.34;;;7.91;79.95
39405;BME280;25121;51.090;17.038;2023-02-19T01:26:12;99750.84;;;7.88;79.75
39405;BME280;25121;51.090;17.038;2023-02-19T01:27:37;99749.66;;;7.91;79.88
39405;BME280;25121;51.090;17.038;2023-02-19T01:29:00;99747.50;;;7.86;79.93
39405;BME280;25121;51.090;17.038;2023-02-19T01:30:25;99740.28;;;7.87;79.66
39405;BME280;25121;51.090;17.038;2023-02-19T01:31:58;99741.31;;;7.86;79.90
39405;BME280;25121;51.090;17.038;2023-02-19T01:33:49;99753.31;;;7.90;79.84
39405;BME280;25121;51.090;17.038;2023-02-19T01:35:49;99734.13;;;7.78;79.84
39405;BME280;25121;51.090;17.038;2023-02-19T01:39:45;99731.59;;;7.76;79.95
39405;BME280;25121;51.090;17.038;2023-02-19T01:41:14;99743.97;;;7.86;79.87
39405;BME280;25121;51.090;17.038;2023-02-19T01:42:43;99738.44;;;7.79;79.68
39405;BME280;25121;51.090;17.038;2023-02-19T01:44:07;99741.28;;;7.77;79.63
39405;BME280;25121;51.090;17.038;2023-02-19T01:46:03;99748.66;;;7.84;79.80
39405;BME280;25121;51.090;17.038;2023-02-19T01:49:32;99734.41;;;7.75;79.82
39405;BME280;25121;51.090;17.038;2023-02-19T01:51:13;99740.28;;;7.79;79.83
39405;BME280;25121;51.090;17.038;2023-02-19T01:53:25;99747.63;;;7.85;80.10
39405;BME280;25121;51.090;17.038;2023-02-19T01:55:15;99729.94;;;7.84;79.95
39405;BME280;25121;51.090;17.038;2023-02-19T01:56:41;99720.56;;;7.80;79.99
39405;BME280;25121;51.090;17.038;2023-02-19T01:58:13;99718.41;;;7.83;80.06
39405;BME280;25121;51.090;17.038;2023-02-19T01:59:42;99709.53;;;7.83;80.35
39405;BME280;25121;51.090;17.038;2023-02-19T02:01:17;99704.50;;;7.80;80.23
39405;BME280;25121;51.090;17.038;2023-02-19T02:02:56;99700.84;;;7.81;80.12
39405;BME280;25121;51.090;17.038;2023-02-19T02:04:23;99704.69;;;7.86;80.38
39405;BME280;25121;51.090;17.038;2023-02-19T02:05:54;99697.16;;;7.82;80.44
39405;BME280;25121;51.090;17.038;2023-02-19T02:07:18;99700.00;;;7.88;80.46
39405;BME280;25121;51.090;17.038;2023-02-19T02:09:15;99690.63;;;7.84;80.52
39405;BME280;25121;51.090;17.038;2023-02-19T02:10:57;99685.78;;;7.80;80.33
39405;BME280;25121;51.090;17.038;2023-02-19T02:12:19;99689.31;;;7.88;80.20
39405;BME280;25121;51.090;17.038;2023-02-19T02:13:46;99682.94;;;7.81;80.40
39405;BME280;25121;51.090;17.038;2023-02-19T02:15:09;99695.63;;;7.87;80.40
39405;BME280;25121;51.090;17.038;2023-02-19T02:16:38;99694.16;;;7.93;79.99
39405;BME280;25121;51.090;17.038;2023-02-19T02:18:10;99688.81;;;7.93;80.21
39405;BME280;25121;51.090;17.038;2023-02-19T02:20:00;99672.72;;;7.85;80.17
39405;BME280;25121;51.090;17.038;2023-02-19T02:23:16;99673.59;;;7.85;80.16
39405;BME280;25121;51.090;17.038;2023-02-19T02:24:57;99686.28;;;7.91;80.19
39405;BME280;25121;51.090;17.038;2023-02-19T02:26:35;99671.56;;;7.87;80.29
39405;BME280;25121;51.090;17.038;2023-02-19T02:28:21;99668.56;;;7.82;80.34
39405;BME280;25121;51.090;17.038;2023-02-19T02:30:35;99677.25;;;7.92;80.30
39405;BME280;25121;51.090;17.038;2023-02-19T02:32:02;99666.41;;;7.86;80.30
39405;BME280;25121;51.090;17.038;2023-02-19T02:33:31;99660.38;;;7.84;80.25
39405;BME280;25121;51.090;17.038;2023-02-19T02:34:57;99659.03;;;7.88;80.20
39405;BME280;25121;51.090;17.038;2023-02-19T02:36:29;99653.84;;;7.86;80.10
39405;BME280;25121;51.090;17.038;2023-02-19T02:37:55;99652.84;;;7.87;80.28
39405;BME280;25121;51.090;17.038;2023-02-19T02:39:20;99667.72;;;7.98;80.20
39405;BME280;25121;51.090;17.038;2023-02-19T02:40:59;99666.72;;;7.91;80.07
39405;BME280;25121;51.090;17.038;2023-02-19T02:42:43;99674.94;;;7.97;80.23
39405;BME280;25121;51.090;17.038;2023-02-19T02:44:11;99657.00;;;7.90;80.18
39405;BME280;25121;51.090;17.038;2023-02-19T02:45:36;99663.88;;;7.92;80.05
39405;BME280;25121;51.090;17.038;2023-02-19T02:47:26;99663.38;;;7.97;80.21
39405;BME280;25121;51.090;17.038;2023-02-19T02:49:05;99675.41;;;8.01;80.27
39405;BME280;25121;51.090;17.038;2023-02-19T02:50:33;99662.53;;;7.96;80.30
39405;BME280;25121;51.090;17.038;2023-02-19T02:51:56;99652.19;;;7.93;80.17
39405;BME280;25121;51.090;17.038;2023-02-19T02:54:11;99672.75;;;8.01;80.26
39405;BME280;25121;51.090;17.038;2023-02-19T02:56:03;99653.00;;;7.94;80.38
39405;BME280;25121;51.090;17.038;2023-02-19T02:57:28;99652.19;;;7.93;80.27
39405;BME280;25121;51.090;17.038;2023-02-19T02:58:51;99665.53;;;8.02;80.29
39405;BME280;25121;51.090;17.038;2023-02-19T03:00:14;99650.50;;;8.01;80.32
39405;BME280;25121;51.090;17.038;2023-02-19T03:01:40;99655.03;;;8.00;80.35
39405;BME280;25121;51.090;17.038;2023-02-19T03:03:47;99654.16;;;7.99;80.37
39405;BME280;25121;51.090;17.038;2023-02-19T03:05:16;99653.53;;;7.97;80.41
39405;BME280;25121;51.090;17.038;2023-02-19T03:07:06;99660.19;;;8.02;80.43
39405;BME280;25121;51.090;17.038;2023-02-19T03:08:36;99660.19;;;8.02;80.55
39405;BME280;25121;51.090;17.038;2023-02-19T03:10:43;99652.03;;;7.95;80.50
39405;BME280;25121;51.090;17.038;2023-02-19T03:12:10;99655.03;;;8.00;80.58
39405;BME280;25121;51.090;17.038;2023-02-19T03:14:00;99641.47;;;7.93;80.90
39405;BME280;25121;51.090;17.038;2023-02-19T03:15:46;99657.50;;;8.02;80.72
39405;BME280;25121;51.090;17.038;2023-02-19T03:17:31;99644.00;;;7.95;80.88
39405;BME280;25121;51.090;17.038;2023-02-19T03:19:18;99651.50;;;7.99;80.54
39405;BME280;25121;51.090;17.038;2023-02-19T03:20:46;99657.50;;;8.02;80.79
39405;BME280;25121;51.090;17.038;2023-02-19T03:22:14;99649.84;;;7.98;80.67
39405;BME280;25121;51.090;17.038;2023-02-19T03:23:40;99638.28;;;7.98;80.84
39405;BME280;25121;51.090;17.038;2023-02-19T03:25:30;99649.66;;;8.00;80.48
39405;BME280;25121;51.090;17.038;2023-02-19T03:27:24;99652.34;;;8.00;80.82
39405;BME280;25121;51.090;17.038;2023-02-19T03:28:53;99634.78;;;7.89;80.90
39405;BME280;25121;51.090;17.038;2023-02-19T03:30:39;99637.66;;;7.88;80.76
39405;BME280;25121;51.090;17.038;2023-02-19T03:32:07;99630.09;;;7.91;80.66
39405;BME280;25121;51.090;17.038;2023-02-19T03:33:30;99646.31;;;7.98;80.95
39405;BME280;25121;51.090;17.038;2023-02-19T03:35:02;99622.41;;;7.88;80.90
39405;BME280;25121;51.090;17.038;2023-02-19T03:36:38;99615.38;;;7.87;80.92
39405;BME280;25121;51.090;17.038;2023-02-19T03:38:06;99611.38;;;7.91;81.06
39405;BME280;25121;51.090;17.038;2023-02-19T03:39:30;99612.72;;;7.95;80.93
39405;BME280;25121;51.090;17.038;2023-02-19T03:41:10;99623.22;;;7.97;80.89
39405;BME280;25121;51.090;17.038;2023-02-19T03:42:42;99610.72;;;7.97;81.11
39405;BME280;25121;51.090;17.038;2023-02-19T03:44:12;99612.38;;;7.98;81.07
39405;BME280;25121;51.090;17.038;2023-02-19T03:45:47;99610.19;;;7.94;81.27
39405;BME280;25121;51.090;17.038;2023-02-19T03:47:44;99610.72;;;7.97;81.05
39405;BME280;25121;51.090;17.038;2023-02-19T03:49:46;99580.44;;;7.89;81.08
39405;BME280;25121;51.090;17.038;2023-02-19T03:52:06;99602.69;;;7.97;81.21
39405;BME280;25121;51.090;17.038;2023-02-19T03:54:11;99604.84;;;7.94;81.01
39405;BME280;25121;51.090;17.038;2023-02-19T03:55:53;99614.38;;;7.96;81.23
39405;BME280;25121;51.090;17.038;2023-02-19T03:58:03;99618.91;;;7.96;81.42
39405;BME280;25121;51.090;17.038;2023-02-19T04:01:43;99620.91;;;7.94;81.08
39405;BME280;25121;51.090;17.038;2023-02-19T04:03:44;99621.06;;;7.92;81.10
39405;BME280;25121;51.090;17.038;2023-02-19T04:07:04;99604.53;;;7.81;81.21
39405;BME280;25121;51.090;17.038;2023-02-19T04:08:39;99598.19;;;7.82;81.28
39405;BME280;25121;51.090;17.038;2023-02-19T04:10:15;99595.50;;;7.82;81.29
39405;BME280;25121;51.090;17.038;2023-02-19T04:14:09;99608.22;;;7.88;81.27
39405;BME280;25121;51.090;17.038;2023-02-19T04:15:54;99607.19;;;7.89;81.21
39405;BME280;25121;51.090;17.038;2023-02-19T04:17:32;99606.38;;;7.88;81.27
39405;BME280;25121;51.090;17.038;2023-02-19T04:22:33;99609.72;;;7.90;81.38
39405;BME280;25121;51.090;17.038;2023-02-19T04:24:19;99615.91;;;7.91;81.22
39405;BME280;25121;51.090;17.038;2023-02-19T04:26:05;99618.38;;;7.92;81.40
39405;BME280;25121;51.090;17.038;2023-02-19T04:27:43;99615.72;;;7.92;81.24
39405;BME280;25121;51.090;17.038;2023-02-19T04:29:38;99599.00;;;7.82;81.24
39405;BME280;25121;51.090;17.038;2023-02-19T04:31:40;99608.53;;;7.93;81.39
39405;BME280;25121;51.090;17.038;2023-02-19T04:33:11;99606.69;;;7.93;81.30
39405;BME280;25121;51.090;17.038;2023-02-19T04:34:52;99607.69;;;7.92;81.40
39405;BME280;25121;51.090;17.038;2023-02-19T04:36:38;99611.88;;;7.95;81.35
39405;BME280;25121;51.090;17.038;2023-02-19T04:38:33;99610.19;;;7.94;81.18
39405;BME280;25121;51.090;17.038;2023-02-19T04:42:05;99606.03;;;7.91;80.94
39405;BME280;25121;51.090;17.038;2023-02-19T04:43:47;99597.69;;;7.86;81.25
39405;BME280;25121;51.090;17.038;2023-02-19T04:45:39;99599.50;;;7.94;80.88
39405;BME280;25121;51.090;17.038;2023-02-19T04:47:21;99595.16;;;7.93;80.87
39405;BME280;25121;51.090;17.038;2023-02-19T04:48:57;99598.31;;;7.96;80.98
39405;BME280;25121;51.090;17.038;2023-02-19T04:50:40;99598.81;;;7.92;80.83
39405;BME280;25121;51.090;17.038;2023-02-19T04:55:06;99586.16;;;7.86;80.87
39405;BME280;25121;51.090;17.038;2023-02-19T04:56:29;99586.63;;;7.89;80.93
39405;BME280;25121;51.090;17.038;2023-02-19T04:57:51;99587.44;;;7.90;81.01
39405;BME280;25121;51.090;17.038;2023-02-19T04:59:16;99572.94;;;7.84;80.67
39405;BME280;25121;51.090;17.038;2023-02-19T05:00:38;99577.09;;;7.87;81.04
39405;BME280;25121;51.090;17.038;2023-02-19T05:02:01;99571.09;;;7.85;80.78
39405;BME280;25121;51.090;17.038;2023-02-19T05:03:27;99571.75;;;7.87;80.59
39405;BME280;25121;51.090;17.038;2023-02-19T05:04:49;99586.47;;;7.91;80.66
39405;BME280;25121;51.090;17.038;2023-02-19T05:06:12;99583.13;;;7.89;80.40
39405;BME280;25121;51.090;17.038;2023-02-19T05:07:34;99580.94;;;7.92;80.50
39405;BME280;25121;51.090;17.038;2023-02-19T05:08:57;99577.25;;;7.93;80.45
39405;BME280;25121;51.090;17.038;2023-02-19T05:10:21;99585.13;;;7.95;80.55
39405;BME280;25121;51.090;17.038;2023-02-19T05:11:42;99580.41;;;7.97;80.52
39405;BME280;25121;51.090;17.038;2023-02-19T05:13:08;99588.44;;;7.97;80.51
39405;BME280;25121;51.090;17.038;2023-02-19T05:14:29;99582.25;;;7.96;80.63
39405;BME280;25121;51.090;17.038;2023-02-19T05:15:56;99583.09;;;7.97;80.39
39405;BME280;25121;51.090;17.038;2023-02-19T05:17:18;99579.59;;;7.96;80.59
39405;BME280;25121;51.090;17.038;2023-02-19T05:18:40;99575.56;;;7.92;80.44
39405;BME280;25121;51.090;17.038;2023-02-19T05:20:03;99584.13;;;7.96;80.33
39405;BME280;25121;51.090;17.038;2023-02-19T05:21:28;99581.28;;;7.97;80.51
39405;BME280;25121;51.090;17.038;2023-02-19T05:22:50;99577.75;;;7.97;80.52
39405;BME280;25121;51.090;17.038;2023-02-19T05:24:14;99573.91;;;7.91;80.56
39405;BME280;25121;51.090;17.038;2023-02-19T05:25:37;99584.13;;;7.96;80.34
39405;BME280;25121;51.090;17.038;2023-02-19T05:27:00;99583.94;;;7.97;80.38
39405;BME280;25121;51.090;17.038;2023-02-19T05:28:23;99578.59;;;7.97;80.43
39405;BME280;25121;51.090;17.038;2023-02-19T05:29:48;99583.09;;;7.97;80.71
39405;BME280;25121;51.090;17.038;2023-02-19T05:31:11;99585.63;;;7.98;80.56
39405;BME280;25121;51.090;17.038;2023-02-19T05:32:34;99580.25;;;7.98;80.54
39405;BME280;25121;51.090;17.038;2023-02-19T05:33:56;99574.09;;;7.98;80.51
39405;BME280;25121;51.090;17.038;2023-02-19T05:35:18;99586.44;;;7.99;80.47
39405;BME280;25121;51.090;17.038;2023-02-19T05:36:42;99566.72;;;8.00;80.23
39405;BME280;25121;51.090;17.038;2023-02-19T05:38:05;99568.53;;;7.99;80.21
39405;BME280;25121;51.090;17.038;2023-02-19T05:39:27;99572.06;;;8.00;80.34
39405;BME280;25121;51.090;17.038;2023-02-19T05:40:51;99560.03;;;7.96;80.63
39405;BME280;25121;51.090;17.038;2023-02-19T05:42:15;99567.03;;;7.97;80.65
39405;BME280;25121;51.090;17.038;2023-02-19T05:43:39;99570.03;;;8.02;80.26
39405;BME280;25121;51.090;17.038;2023-02-19T05:45:00;99570.03;;;8.02;80.22
39405;BME280;25121;51.090;17.038;2023-02-19T05:46:24;99562.00;;;8.02;80.11
39405;BME280;25121;51.090;17.038;2023-02-19T05:47:47;99572.72;;;8.02;80.14
39405;BME280;25121;51.090;17.038;2023-02-19T05:49:09;99577.91;;;8.04;80.20
39405;BME280;25121;51.090;17.038;2023-02-19T05:50:32;99576.41;;;8.01;80.06
39405;BME280;25121;51.090;17.038;2023-02-19T05:52:08;99579.75;;;8.03;80.24
39405;BME280;25121;51.090;17.038;2023-02-19T05:53:34;99572.91;;;8.01;80.04
39405;BME280;25121;51.090;17.038;2023-02-19T05:54:55;99560.69;;;7.98;80.01
39405;BME280;25121;51.090;17.038;2023-02-19T05:56:27;99570.91;;;8.03;79.98
39405;BME280;25121;51.090;17.038;2023-02-19T05:57:52;99556.34;;;7.97;80.14
39405;BME280;25121;51.090;17.038;2023-02-19T05:59:18;99562.00;;;8.02;80.23
39405;BME280;25121;51.090;17.038;2023-02-19T06:00:39;99565.53;;;8.03;80.31
39405;BME280;25121;51.090;17.038;2023-02-19T06:02:02;99565.53;;;8.03;80.32
39405;BME280;25121;51.090;17.038;2023-02-19T06:03:24;99570.69;;;8.04;80.37
39405;BME280;25121;51.090;17.038;2023-02-19T06:04:45;99570.69;;;8.04;80.24
39405;BME280;25121;51.090;17.038;2023-02-19T06:06:08;99568.84;;;8.05;80.39
39405;BME280;25121;51.090;17.038;2023-02-19T06:07:33;99575.06;;;8.05;80.19
39405;BME280;25121;51.090;17.038;2023-02-19T06:08:59;99564.03;;;8.00;80.33
39405;BME280;25121;51.090;17.038;2023-02-19T06:10:21;99571.38;;;8.06;80.30
39405;BME280;25121;51.090;17.038;2023-02-19T06:11:45;99570.53;;;8.06;80.40
39405;BME280;25121;51.090;17.038;2023-02-19T06:13:08;99562.69;;;8.04;80.32
39405;BME280;25121;51.090;17.038;2023-02-19T06:14:29;99567.03;;;8.05;80.66
39405;BME280;25121;51.090;17.038;2023-02-19T06:15:51;99566.03;;;8.06;80.45
39405;BME280;25121;51.090;17.038;2023-02-19T06:17:13;99567.69;;;8.07;80.37
39405;BME280;25121;51.090;17.038;2023-02-19T06:18:36;99575.72;;;8.07;80.15
39405;BME280;25121;51.090;17.038;2023-02-19T06:20:00;99576.06;;;8.04;80.01
39405;BME280;25121;51.090;17.038;2023-02-19T06:21:23;99573.22;;;8.06;80.02
39405;BME280;25121;51.090;17.038;2023-02-19T06:22:44;99574.41;;;8.03;80.03
39405;BME280;25121;51.090;17.038;2023-02-19T06:24:08;99572.22;;;7.98;79.88
39405;BME280;25121;51.090;17.038;2023-02-19T06:25:35;99567.91;;;7.97;80.03
39405;BME280;25121;51.090;17.038;2023-02-19T06:26:59;99568.38;;;8.01;80.10
39405;BME280;25121;51.090;17.038;2023-02-19T06:28:21;99585.41;;;8.08;80.12
39405;BME280;25121;51.090;17.038;2023-02-19T06:29:45;99570.38;;;7.99;80.09
39405;BME280;25121;51.090;17.038;2023-02-19T06:31:08;99584.59;;;8.08;79.78
39405;BME280;25121;51.090;17.038;2023-02-19T06:32:30;99590.78;;;8.08;79.84
39405;BME280;25121;51.090;17.038;2023-02-19T06:33:53;99572.72;;;8.02;79.84
39405;BME280;25121;51.090;17.038;2023-02-19T06:35:23;99582.44;;;8.03;79.82
39405;BME280;25121;51.090;17.038;2023-02-19T06:36:47;99586.41;;;8.07;79.44
39405;BME280;25121;51.090;17.038;2023-02-19T06:38:11;99587.94;;;8.02;79.61
39405;BME280;25121;51.090;17.038;2023-02-19T06:39:34;99602.47;;;8.07;79.60
39405;BME280;25121;51.090;17.038;2023-02-19T06:40:59;99582.94;;;7.98;79.64
39405;BME280;25121;51.090;17.038;2023-02-19T06:42:26;99591.44;;;8.02;79.69
39405;BME280;25121;51.090;17.038;2023-02-19T06:43:49;99599.16;;;8.05;79.63
39405;BME280;25121;51.090;17.038;2023-02-19T06:45:11;99590.94;;;8.07;79.66
39405;BME280;25121;51.090;17.038;2023-02-19T06:46:38;99596.13;;;8.08;79.74
39405;BME280;25121;51.090;17.038;2023-02-19T06:48:00;99593.44;;;8.08;79.85
39405;BME280;25121;51.090;17.038;2023-02-19T06:49:22;99593.44;;;8.08;79.85
39405;BME280;25121;51.090;17.038;2023-02-19T06:50:44;99589.75;;;8.09;79.98
39405;BME280;25121;51.090;17.038;2023-02-19T06:52:08;99587.06;;;8.09;79.87
39405;BME280;25121;51.090;17.038;2023-02-19T06:53:31;99594.13;;;8.10;79.92
39405;BME280;25121;51.090;17.038;2023-02-19T06:54:53;99589.75;;;8.09;79.88
39405;BME280;25121;51.090;17.038;2023-02-19T06:56:21;99593.81;;;8.05;80.17
39405;BME280;25121;51.090;17.038;2023-02-19T06:57:44;99597.13;;;8.07;79.95
39405;BME280;25121;51.090;17.038;2023-02-19T06:59:09;99602.66;;;8.06;80.10
39405;BME280;25121;51.090;17.038;2023-02-19T07:00:33;99593.81;;;8.05;80.05
39405;BME280;25121;51.090;17.038;2023-02-19T07:01:55;99595.63;;;8.05;80.17
39405;BME280;25121;51.090;17.038;2023-02-19T07:03:17;99596.63;;;8.04;80.21
39405;BME280;25121;51.090;17.038;2023-02-19T07:04:41;99603.16;;;8.01;80.01
39405;BME280;25121;51.090;17.038;2023-02-19T07:06:05;99614.22;;;7.98;79.82
39405;BME280;25121;51.090;17.038;2023-02-19T07:07:28;99622.41;;;7.96;79.74
39405;BME280;25121;51.090;17.038;2023-02-19T07:08:51;99620.22;;;7.92;79.65
39405;BME280;25121;51.090;17.038;2023-02-19T07:10:15;99612.38;;;7.82;79.74
39405;BME280;25121;51.090;17.038;2023-02-19T07:11:38;99623.75;;;7.84;79.79
39405;BME280;25121;51.090;17.038;2023-02-19T07:13:04;99627.44;;;7.83;79.55
39405;BME280;25121;51.090;17.038;2023-02-19T07:14:26;99628.28;;;7.84;79.53
39405;BME280;25121;51.090;17.038;2023-02-19T07:15:49;99636.81;;;7.79;79.35
39405;BME280;25121;51.090;17.038;2023-02-19T07:17:15;99636.47;;;7.74;79.01
39405;BME280;25121;51.090;17.038;2023-02-19T07:18:40;99639.31;;;7.64;79.09
39405;BME280;25121;51.090;17.038;2023-02-19T07:20:07;99645.19;;;7.68;79.17
39405;BME280;25121;51.090;17.038;2023-02-19T07:21:38;99640.31;;;7.55;79.17
39405;BME280;25121;51.090;17.038;2023-02-19T07:23:03;99655.03;;;7.59;79.26
39405;BME280;25121;51.090;17.038;2023-02-19T07:24:27;99659.03;;;7.55;79.47
39405;BME280;25121;51.090;17.038;2023-02-19T07:25:50;99660.19;;;7.52;79.24
39405;BME280;25121;51.090;17.038;2023-02-19T07:27:12;99664.38;;;7.55;79.44
39405;BME280;25121;51.090;17.038;2023-02-19T07:28:39;99656.00;;;7.50;79.67
39405;BME280;25121;51.090;17.038;2023-02-19T07:30:00;99651.50;;;7.42;79.77
39405;BME280;25121;51.090;17.038;2023-02-19T07:31:35;99653.19;;;7.43;79.67
39405;BME280;25121;51.090;17.038;2023-02-19T07:32:58;99661.38;;;7.42;79.40
39405;BME280;25121;51.090;17.038;2023-02-19T07:34:19;99663.22;;;7.41;79.51
39405;BME280;25121;51.090;17.038;2023-02-19T07:35:45;99670.53;;;7.39;79.22
39405;BME280;25121;51.090;17.038;2023-02-19T07:37:13;99661.84;;;7.29;79.27
39405;BME280;25121;51.090;17.038;2023-02-19T07:38:38;99672.72;;;7.36;79.41
39405;BME280;25121;51.090;17.038;2023-02-19T07:40:00;99669.03;;;7.37;79.32
39405;BME280;25121;51.090;17.038;2023-02-19T07:41:37;99664.38;;;7.39;79.45
39405;BME280;25121;51.090;17.038;2023-02-19T07:43:03;99673.91;;;7.33;79.40
39405;BME280;25121;51.090;17.038;2023-02-19T07:44:35;99663.69;;;7.28;79.34
39405;BME280;25121;51.090;17.038;2023-02-19T07:46:02;99680.41;;;7.39;79.35
39405;BME280;25121;51.090;17.038;2023-02-19T07:47:29;99680.75;;;7.36;79.19
39405;BME280;25121;51.090;17.038;2023-02-19T07:48:59;99680.91;;;7.34;78.97
39405;BME280;25121;51.090;17.038;2023-02-19T07:50:25;99675.38;;;7.27;79.08
39405;BME280;25121;51.090;17.038;2023-02-19T07:51:48;99703.31;;;7.33;78.93
39405;BME280;25121;51.090;17.038;2023-02-19T07:53:13;99700.78;;;7.31;78.95
39405;BME280;25121;51.090;17.038;2023-02-19T07:54:35;99697.44;;;7.29;79.11
39405;BME280;25121;51.090;17.038;2023-02-19T07:55:59;99695.75;;;7.28;78.99
39405;BME280;25121;51.090;17.038;2023-02-19T07:57:26;99704.63;;;7.29;78.96
39405;BME280;25121;51.090;17.038;2023-02-19T07:58:52;99701.59;;;7.24;78.95
39405;BME280;25121;51.090;17.038;2023-02-19T08:00:21;99714.13;;;7.23;78.63
39405;BME280;25121;51.090;17.038;2023-02-19T08:01:43;99721.28;;;7.23;78.57
39405;BME280;25121;51.090;17.038;2023-02-19T08:03:26;99717.28;;;7.19;78.80
39405;BME280;25121;51.090;17.038;2023-02-19T08:04:48;99722.97;;;7.16;78.86
39405;BME280;25121;51.090;17.038;2023-02-19T08:06:10;99725.63;;;7.16;78.83
39405;BME280;25121;51.090;17.038;2023-02-19T08:07:35;99729.47;;;7.13;78.90
39405;BME280;25121;51.090;17.038;2023-02-19T08:08:57;99728.94;;;7.09;78.60
39405;BME280;25121;51.090;17.038;2023-02-19T08:10:24;99722.75;;;7.01;78.87
39405;BME280;25121;51.090;17.038;2023-02-19T08:12:05;99716.53;;;7.00;78.70
39405;BME280;25121;51.090;17.038;2023-02-19T08:13:47;99733.09;;;7.04;78.38
39405;BME280;25121;51.090;17.038;2023-02-19T08:15:09;99733.44;;;7.01;78.41
39405;BME280;25121;51.090;17.038;2023-02-19T08:16:36;99745.44;;;7.05;78.14
39405;BME280;25121;51.090;17.038;2023-02-19T08:18:05;99727.22;;;7.00;78.19
39405;BME280;25121;51.090;17.038;2023-02-19T08:19:32;99732.91;;;6.97;78.06
39405;BME280;25121;51.090;17.038;2023-02-19T08:21:20;99747.63;;;7.01;78.41
39405;BME280;25121;51.090;17.038;2023-02-19T08:22:42;99737.88;;;6.92;78.17
39405;BME280;25121;51.090;17.038;2023-02-19T08:24:05;99757.47;;;7.01;78.15
39405;BME280;25121;51.090;17.038;2023-02-19T08:25:30;99757.63;;;6.99;77.77
39405;BME280;25121;51.090;17.038;2023-02-19T08:26:54;99761.59;;;6.95;77.85
39405;BME280;25121;51.090;17.038;2023-02-19T08:28:24;99752.06;;;6.93;77.62
39405;BME280;25121;51.090;17.038;2023-02-19T08:29:58;99771.59;;;6.93;77.79
39405;BME280;25121;51.090;17.038;2023-02-19T08:31:26;99763.78;;;6.92;77.72
39405;BME280;25121;51.090;17.038;2023-02-19T08:33:01;99767.41;;;6.90;77.77
39405;BME280;25121;51.090;17.038;2023-02-19T08:34:24;99772.63;;;6.92;77.83
39405;BME280;25121;51.090;17.038;2023-02-19T08:35:46;99777.28;;;6.90;77.80
39405;BME280;25121;51.090;17.038;2023-02-19T08:37:15;99771.22;;;6.80;77.94
39405;BME280;25121;51.090;17.038;2023-02-19T08:38:39;99786.75;;;6.84;77.79
39405;BME280;25121;51.090;17.038;2023-02-19T08:40:01;99778.06;;;6.82;78.02
39405;BME280;25121;51.090;17.038;2023-02-19T08:41:27;99765.50;;;6.75;78.05
39405;BME280;25121;51.090;17.038;2023-02-19T08:42:52;99782.59;;;6.82;78.08
39405;BME280;25121;51.090;17.038;2023-02-19T08:44:14;99775.19;;;6.76;78.01
39405;BME280;25121;51.090;17.038;2023-02-19T08:45:42;99786.25;;;6.81;77.96
39405;BME280;25121;51.090;17.038;2023-02-19T08:47:05;99773.00;;;6.71;77.79
39405;BME280;25121;51.090;17.038;2023-02-19T08:48:33;99772.16;;;6.71;77.63
39405;BME280;25121;51.090;17.038;2023-02-19T08:49:56;99786.03;;;6.74;77.20